Time;durP1;ratioP1;P1;durP2;ratioP2;P2;SDS_P1;SDS_P2;PMS_P1;PMS_P2;Temp;Humidity;BMP_temperature;BMP_pressure;BME280_temperature;BME280_humidity;BME280_pressure;Samples;Min_cycle;Max_cycle;Signal;HPM_P1;HPM_P2
2023/08/30 00:00:04;;;;;;;1.13;1.08;;;;;;;21.53;nan;61678.97;5041185;28;20175;-71
2023/08/30 00:02:30;;;;;;;0.90;0.90;;;;;;;21.44;nan;61522.63;5039794;28;20302;-67
2023/08/30 00:05:03;;;;;;;0.82;0.82;;;;;;;21.54;nan;61510.53;5035038;28;20603;-69
2023/08/30 00:07:29;;;;;;;2.20;2.00;;;;;;;21.44;nan;61453.00;5039669;28;20226;-67
2023/08/30 00:09:54;;;;;;;1.27;1.20;;;;;;;21.20;nan;61370.78;5034774;28;20197;-68
2023/08/30 00:12:19;;;;;;;1.40;1.30;;;;;;;21.49;nan;61419.66;5034606;28;20242;-67
2023/08/30 00:14:45;;;;;;;1.30;1.20;;;;;;;21.21;nan;61403.66;5034430;28;20172;-65
2023/08/30 00:17:11;;;;;;;1.63;1.52;;;;;;;20.99;nan;61296.22;5034402;28;20620;-66
2023/08/30 00:19:36;;;;;;;0.82;0.80;;;;;;;21.06;nan;61200.22;5034523;28;20163;-69
2023/08/30 00:22:02;;;;;;;1.38;1.27;;;;;;;20.99;nan;61127.41;5033305;28;20296;-66
2023/08/30 00:24:28;;;;;;;1.30;1.20;;;;;;;21.12;nan;61149.25;5034392;28;20175;-70
2023/08/30 00:26:53;;;;;;;0.57;0.57;;;;;;;20.86;nan;61060.84;5034502;28;20538;-68
2023/08/30 00:29:19;;;;;;;1.85;1.75;;;;;;;21.06;nan;61101.50;5034329;28;20615;-69
2023/08/30 00:31:44;;;;;;;0.85;0.82;;;;;;;21.35;nan;61299.34;5031488;28;20191;-66
2023/08/30 00:34:09;;;;;;;1.15;1.05;;;;;;;21.18;nan;61204.84;5033862;28;20254;-68
2023/08/30 00:36:35;;;;;;;0.93;0.93;;;;;;;21.05;nan;61045.28;5033905;28;20291;-67
2023/08/30 00:39:01;;;;;;;0.90;0.90;;;;;;;21.04;nan;61179.22;5034000;28;20176;-72
2023/08/30 00:41:27;;;;;;;0.80;0.80;;;;;;;20.95;nan;61234.59;5033756;28;20262;-68
2023/08/30 00:43:52;;;;;;;0.95;0.95;;;;;;;21.15;nan;61168.25;5033710;28;20255;-69
2023/08/30 00:46:18;;;;;;;1.65;1.55;;;;;;;20.88;nan;61117.06;5033617;28;20179;-66
2023/08/30 00:48:44;;;;;;;1.55;1.45;;;;;;;20.92;nan;61035.88;5033555;28;20175;-66
2023/08/30 00:51:09;;;;;;;0.68;0.68;;;;;;;20.64;nan;60883.00;5032496;28;20226;-67
2023/08/30 00:53:36;;;;;;;0.73;0.73;;;;;;;20.54;nan;60836.00;5033411;28;20172;-68
2023/08/30 00:56:02;;;;;;;1.08;1.08;;;;;;;20.65;nan;60747.09;5033354;28;20179;-65
2023/08/30 00:58:28;;;;;;;0.60;0.60;;;;;;;20.61;nan;60638.81;5033441;28;20696;-68
2023/08/30 01:00:54;;;;;;;0.80;0.80;;;;;;;20.57;nan;60410.63;5037849;28;20250;-66
2023/08/30 01:03:22;;;;;;;0.70;0.70;;;;;;;20.53;nan;60317.94;5033340;28;20245;-66
2023/08/30 01:05:47;;;;;;;1.42;1.33;;;;;;;20.50;nan;60289.22;5033551;28;20187;-66
2023/08/30 01:08:13;;;;;;;1.38;1.27;;;;;;;20.28;nan;60335.34;5033410;28;20219;-69
2023/08/30 01:10:53;;;;;;;0.85;0.85;;;;;;;20.48;nan;60481.59;5033471;28;20176;-69
2023/08/30 01:13:20;;;;;;;0.80;0.80;;;;;;;20.50;nan;60742.75;5033240;28;20561;-68
2023/08/30 01:15:51;;;;;;;1.17;1.17;;;;;;;20.32;nan;60712.81;5033085;28;20198;-71
2023/08/30 01:18:19;;;;;;;0.90;0.90;;;;;;;20.45;nan;60755.31;5033497;28;20436;-67
2023/08/30 01:20:46;;;;;;;0.88;0.88;;;;;;;20.25;nan;60738.69;5033319;28;20191;-68
2023/08/30 01:23:40;;;;;;;0.88;0.88;;;;;;;20.34;nan;60844.22;5033236;28;20699;-66
2023/08/30 01:26:16;;;;;;;1.05;1.00;;;;;;;20.44;nan;60933.78;5033061;28;20623;-68
2023/08/30 01:28:41;;;;;;;0.93;0.88;;;;;;;20.28;nan;60937.16;5033809;28;20171;-64
2023/08/30 01:31:09;;;;;;;0.95;0.95;;;;;;;20.28;nan;61007.22;5033026;28;20206;-68
2023/08/30 01:33:36;;;;;;;0.90;0.90;;;;;;;20.27;nan;61202.69;5033095;28;20226;-71
2023/08/30 01:36:03;;;;;;;1.73;1.63;;;;;;;20.14;nan;60931.28;5033102;28;20194;-66
2023/08/30 01:38:31;;;;;;;1.23;1.20;;;;;;;20.20;nan;61042.34;5032802;28;20179;-66
2023/08/30 01:40:59;;;;;;;1.13;1.05;;;;;;;17.16;nan;62018.69;5033159;28;20176;-70
2023/08/30 01:43:28;;;;;;;1.05;1.05;;;;;;;19.97;nan;61034.66;5032964;28;20264;-67
2023/08/30 01:45:56;;;;;;;1.10;1.10;;;;;;;19.78;nan;61088.47;5033098;28;20250;-66
2023/08/30 01:48:23;;;;;;;1.00;1.00;;;;;;;20.06;nan;61148.50;5032879;28;20657;-65
2023/08/30 01:50:49;;;;;;;0.95;0.95;;;;;;;19.84;nan;60882.63;5032990;28;20179;-69
2023/08/30 01:53:15;;;;;;;1.23;1.13;;;;;;;19.87;nan;60906.75;5032679;28;20573;-67
2023/08/30 01:55:42;;;;;;;1.33;1.23;;;;;;;19.98;nan;60835.53;5032975;28;20171;-66
2023/08/30 01:58:08;;;;;;;0.98;0.98;;;;;;;19.74;nan;60861.63;5032770;28;20580;-69
2023/08/30 02:00:34;;;;;;;1.45;1.35;;;;;;;19.92;nan;60699.75;5032526;28;20168;-68
2023/08/30 02:03:07;;;;;;;0.90;0.90;;;;;;;19.81;nan;60833.19;5032359;28;20245;-70
2023/08/30 02:05:35;;;;;;;0.85;0.85;;;;;;;19.97;nan;60822.03;5032721;28;20167;-68
2023/08/30 02:08:09;;;;;;;1.27;1.23;;;;;;;19.80;nan;60717.44;5034657;28;20309;-68
2023/08/30 02:10:37;;;;;;;0.68;0.68;;;;;;;19.75;nan;60833.66;5032401;28;20653;-71
2023/08/30 02:13:04;;;;;;;1.50;1.40;;;;;;;18.46;nan;60717.31;5032399;28;20183;-66
2023/08/30 02:15:33;;;;;;;1.23;1.15;;;;;;;19.92;nan;60792.53;5032507;28;20612;-68
2023/08/30 02:17:59;;;;;;;1.00;1.00;;;;;;;19.68;nan;60691.06;5012231;28;20180;-64
2023/08/30 02:20:25;;;;;;;0.90;0.90;;;;;;;19.66;nan;60577.94;5012851;28;20215;-66
2023/08/30 02:22:50;;;;;;;1.85;1.65;;;;;;;19.72;nan;60610.56;5012711;28;20235;-69
2023/08/30 02:25:16;;;;;;;1.50;1.40;;;;;;;19.73;nan;60567.06;5012696;28;20536;-64
2023/08/30 02:27:41;;;;;;;0.80;0.80;;;;;;;19.92;nan;60619.38;5012750;28;20626;-63
2023/08/30 02:30:07;;;;;;;1.58;1.00;;;;;;;19.99;nan;60694.03;5012501;28;20226;-66
2023/08/30 02:32:33;;;;;;;1.33;1.23;;;;;;;19.99;nan;60684.25;5012413;28;20643;-66
2023/08/30 02:34:58;;;;;;;1.02;1.02;;;;;;;19.72;nan;60604.81;5012326;28;20183;-72
2023/08/30 02:37:24;;;;;;;0.85;0.85;;;;;;;19.92;nan;60579.94;5012347;28;20179;-67
2023/08/30 02:39:49;;;;;;;1.02;0.98;;;;;;;19.91;nan;60372.00;5012509;28;20655;-68
2023/08/30 02:42:14;;;;;;;0.98;0.98;;;;;;;19.69;nan;60265.16;5011951;28;20199;-67
2023/08/30 02:44:40;;;;;;;5.20;2.03;;;;;;;19.85;nan;60090.56;5012147;28;20237;-68
2023/08/30 02:47:05;;;;;;;1.23;1.20;;;;;;;19.61;nan;60095.06;5011979;28;20195;-71
2023/08/30 02:49:31;;;;;;;1.65;1.45;;;;;;;19.60;nan;60167.09;5012334;28;20168;-66
2023/08/30 02:51:56;;;;;;;2.97;2.15;;;;;;;19.59;nan;60127.09;5012299;28;20180;-67
2023/08/30 02:54:22;;;;;;;0.90;0.90;;;;;;;19.85;nan;60168.31;5014593;28;20257;-69
2023/08/30 02:56:48;;;;;;;1.25;1.15;;;;;;;18.72;nan;59984.69;5016192;28;20210;-66
2023/08/30 02:59:13;;;;;;;0.85;0.85;;;;;;;19.69;nan;60044.34;5016258;28;20168;-71
2023/08/30 03:01:39;;;;;;;1.05;1.05;;;;;;;20.00;nan;60179.22;5022000;28;20210;-70
2023/08/30 03:04:06;;;;;;;2.10;1.55;;;;;;;19.88;nan;60178.88;5038925;28;20194;-70
2023/08/30 03:06:33;;;;;;;0.80;0.80;;;;;;;19.80;nan;60525.63;5034987;28;20253;-66
2023/08/30 03:08:58;;;;;;;1.27;1.25;;;;;;;20.20;nan;60720.69;5035305;28;20273;-65
2023/08/30 03:11:24;;;;;;;0.70;0.70;;;;;;;20.15;nan;60683.97;5035638;28;20179;-70
2023/08/30 03:13:50;;;;;;;1.10;1.10;;;;;;;19.93;nan;60664.56;5035599;28;20214;-68
2023/08/30 03:16:16;;;;;;;1.02;1.02;;;;;;;20.02;nan;60723.88;5035400;28;20163;-66
2023/08/30 03:18:43;;;;;;;1.27;1.25;;;;;;;19.97;nan;60855.16;5035731;28;20217;-66
2023/08/30 03:21:09;;;;;;;1.45;1.35;;;;;;;19.92;nan;60772.34;5035553;28;20237;-71
2023/08/30 03:23:35;;;;;;;2.08;1.40;;;;;;;20.10;nan;60823.06;5035614;28;20199;-64
2023/08/30 03:26:11;;;;;;;1.23;1.20;;;;;;;19.86;nan;60835.63;5035558;28;20175;-67
2023/08/30 03:28:37;;;;;;;1.30;1.15;;;;;;;20.09;nan;60879.53;5035483;28;20228;-65
2023/08/30 03:31:13;;;;;;;1.10;1.00;;;;;;;20.10;nan;61018.13;5035304;28;20191;-66
2023/08/30 03:33:38;;;;;;;0.75;0.75;;;;;;;20.02;nan;60936.50;5040566;28;20190;-67
2023/08/30 03:36:04;;;;;;;0.85;0.85;;;;;;;20.03;nan;61043.41;5035177;28;20213;-64
2023/08/30 03:38:29;;;;;;;1.75;1.50;;;;;;;19.81;nan;61025.00;5035328;28;20228;-68
2023/08/30 03:40:55;;;;;;;1.15;1.05;;;;;;;20.10;nan;60950.69;5035113;28;20250;-66
2023/08/30 03:43:20;;;;;;;0.85;0.85;;;;;;;19.97;nan;61107.25;5035115;28;20642;-67
2023/08/30 03:45:46;;;;;;;1.02;1.02;;;;;;;20.08;nan;61041.81;5037057;28;20690;-71
2023/08/30 03:48:11;;;;;;;3.88;1.80;;;;;;;20.22;nan;61147.75;5035214;28;20190;-66
2023/08/30 03:50:37;;;;;;;1.02;1.02;;;;;;;20.36;nan;61160.38;5034848;28;20278;-71
2023/08/30 03:53:02;;;;;;;1.02;1.02;;;;;;;20.37;nan;61184.88;5035013;28;20681;-67
2023/08/30 03:55:27;;;;;;;0.77;0.77;;;;;;;20.44;nan;61162.16;5041280;28;20183;-69
2023/08/30 03:57:53;;;;;;;1.60;1.50;;;;;;;20.51;nan;61232.34;5034807;28;20186;-70
2023/08/30 04:00:19;;;;;;;0.90;0.90;;;;;;;20.70;nan;61367.41;5034733;28;20211;-68
2023/08/30 04:02:44;;;;;;;0.80;0.80;;;;;;;20.75;nan;61338.72;5033984;28;20206;-69
2023/08/30 04:05:10;;;;;;;0.85;0.85;;;;;;;20.50;nan;61427.88;5033620;28;20171;-66
2023/08/30 04:07:35;;;;;;;1.35;1.20;;;;;;;20.74;nan;61384.91;5034094;28;20231;-68
2023/08/30 04:10:05;;;;;;;1.20;0.93;;;;;;;20.85;nan;61399.94;5034263;28;20171;-67
2023/08/30 04:12:33;;;;;;;0.95;0.95;;;;;;;21.10;nan;61495.13;5038921;28;20207;-67
2023/08/30 04:14:59;;;;;;;0.82;0.82;;;;;;;21.34;nan;61589.88;5040986;28;20276;-66
2023/08/30 04:17:24;;;;;;;1.25;1.23;;;;;;;21.45;nan;61606.94;5041248;28;20207;-67
2023/08/30 04:19:52;;;;;;;0.95;0.93;;;;;;;21.45;nan;61734.91;5037680;28;20207;-68
2023/08/30 04:22:18;;;;;;;5.18;2.15;;;;;;;21.46;nan;61899.25;5040208;28;20210;-70
2023/08/30 04:24:44;;;;;;;0.93;0.93;;;;;;;21.79;nan;61746.88;5038110;28;20670;-66
2023/08/30 04:27:09;;;;;;;0.75;0.75;;;;;;;21.95;nan;61746.28;5041122;28;20183;-66
2023/08/30 04:29:35;;;;;;;0.90;0.90;;;;;;;22.18;nan;62006.63;5040566;28;20666;-68
2023/08/30 04:32:00;;;;;;;1.40;1.35;;;;;;;22.08;nan;61943.19;5044059;28;20175;-65
2023/08/30 04:34:26;;;;;;;0.90;0.90;;;;;;;22.70;nan;61849.06;5033911;28;20556;-67
2023/08/30 04:36:51;;;;;;;1.00;1.00;;;;;;;22.65;nan;61983.44;5054838;28;20189;-67
2023/08/30 04:39:17;;;;;;;0.90;0.90;;;;;;;22.62;nan;62009.25;5036225;28;20183;-62
2023/08/30 04:41:43;;;;;;;0.80;0.80;;;;;;;22.68;nan;61974.41;5033252;28;20203;-68
2023/08/30 04:44:09;;;;;;;2.00;1.90;;;;;;;22.59;nan;61856.81;5038540;28;20600;-63
2023/08/30 04:46:34;;;;;;;1.23;1.20;;;;;;;22.34;nan;61839.97;5035694;28;20229;-69
2023/08/30 04:48:59;;;;;;;0.75;0.75;;;;;;;22.70;nan;61970.94;5038133;28;20179;-68
2023/08/30 04:51:25;;;;;;;0.70;0.70;;;;;;;22.66;nan;62024.22;5034760;28;20646;-65
2023/08/30 04:53:50;;;;;;;1.08;1.05;;;;;;;20.73;nan;61779.03;5041057;28;20183;-71
2023/08/30 04:56:18;;;;;;;1.20;1.10;;;;;;;22.86;nan;61893.28;5040115;28;20182;-62
2023/08/30 04:58:43;;;;;;;1.02;0.98;;;;;;;23.14;nan;61979.25;5035755;28;20324;-64
2023/08/30 05:01:09;;;;;;;1.70;1.60;;;;;;;23.28;nan;62154.25;5039747;28;20202;-66
2023/08/30 05:03:35;;;;;;;1.65;1.17;;;;;;;23.63;nan;62068.34;5035510;28;20206;-67
2023/08/30 05:06:00;;;;;;;1.48;1.38;;;;;;;23.77;nan;62123.44;5038119;28;20191;-67
2023/08/30 05:08:25;;;;;;;0.95;0.90;;;;;;;23.74;nan;62159.16;5036066;28;20222;-64
2023/08/30 05:10:54;;;;;;;0.98;0.95;;;;;;;23.76;nan;62085.78;5036119;28;20697;-67
2023/08/30 05:13:19;;;;;;;1.33;1.27;;;;;;;23.66;nan;62092.09;5033073;28;20179;-64
2023/08/30 05:15:45;;;;;;;1.48;1.38;;;;;;;20.32;nan;61709.13;5032585;28;20187;-66
2023/08/30 05:18:10;;;;;;;0.95;0.95;;;;;;;23.44;nan;62153.09;5032286;28;20262;-68
2023/08/30 05:20:36;;;;;;;1.45;1.35;;;;;;;23.63;nan;62081.41;5039082;28;20182;-67
2023/08/30 05:23:02;;;;;;;4.05;1.67;;;;;;;22.86;nan;62114.75;5041217;28;20213;-68
2023/08/30 05:25:28;;;;;;;0.90;0.90;;;;;;;23.88;nan;62114.53;5033039;28;20179;-64
2023/08/30 05:27:53;;;;;;;1.05;1.02;;;;;;;24.05;nan;62089.50;5034857;28;20756;-65
2023/08/30 05:30:19;;;;;;;1.15;1.13;;;;;;;;;;5037815;28;20190;-66
2023/08/30 05:32:44;;;;;;;1.13;1.05;;;;;;;24.02;nan;62336.72;5037458;28;20202;-63
2023/08/30 05:35:10;;;;;;;1.83;1.73;;;;;;;23.97;nan;62139.88;5040787;28;20248;-63
2023/08/30 05:37:35;;;;;;;1.75;1.65;;;;;;;24.11;nan;62161.03;5034779;28;20591;-66
2023/08/30 05:40:01;;;;;;;1.50;1.40;;;;;;;24.04;nan;62121.75;5038955;28;20245;-64
2023/08/30 05:42:26;;;;;;;1.00;1.00;;;;;;;24.37;nan;62203.19;5038008;28;20290;-66
2023/08/30 05:44:53;;;;;;;1.45;1.35;;;;;;;24.29;nan;62108.44;5042309;28;20649;-67
2023/08/30 05:47:18;;;;;;;1.75;1.50;;;;;;;24.61;nan;62220.09;5033714;28;20254;-67
2023/08/30 05:49:44;;;;;;;0.82;0.82;;;;;;;24.59;nan;62309.84;5036563;28;20262;-66
2023/08/30 05:52:09;;;;;;;1.40;1.30;;;;;;;24.74;nan;62331.63;5039118;28;20183;-66
2023/08/30 05:54:35;;;;;;;1.75;1.40;;;;;;;24.32;nan;62163.53;5034162;28;20183;-67
2023/08/30 05:57:01;;;;;;;0.90;0.90;;;;;;;24.41;nan;62200.50;5030123;28;20182;-67
2023/08/30 05:59:27;;;;;;;0.88;0.88;;;;;;;24.36;nan;62194.78;5032190;28;20183;-67
2023/08/30 06:01:53;;;;;;;1.42;1.33;;;;;;;24.41;nan;62213.56;5038778;28;20697;-67
2023/08/30 06:04:35;;;;;;;0.93;0.85;;;;;;;24.11;nan;62260.84;5034289;28;20218;-66
2023/08/30 06:07:00;;;;;;;0.80;0.80;;;;;;;23.89;nan;62120.88;5033376;28;20614;-64
2023/08/30 06:09:25;;;;;;;0.90;0.90;;;;;;;23.99;nan;62199.59;5031965;28;20176;-63
2023/08/30 06:11:51;;;;;;;1.33;1.20;;;;;;;23.93;nan;62192.75;5031950;28;20176;-67
2023/08/30 06:14:16;;;;;;;0.68;0.68;;;;;;;23.68;nan;62099.56;5032344;28;20178;-70
2023/08/30 06:16:44;;;;;;;1.20;1.10;;;;;;;23.85;nan;62079.22;5038026;28;20179;-68
2023/08/30 06:19:13;;;;;;;1.10;1.00;;;;;;;23.60;nan;62098.88;5037122;28;20270;-65
2023/08/30 06:21:38;;;;;;;0.82;0.82;;;;;;;23.64;nan;62207.22;5035722;28;20249;-64
2023/08/30 06:24:04;;;;;;;1.08;1.00;;;;;;;23.82;nan;62122.78;5031113;28;20167;-68
2023/08/30 06:26:29;;;;;;;0.82;0.82;;;;;;;24.00;nan;62388.72;5032306;28;20199;-66
2023/08/30 06:28:55;;;;;;;1.45;1.35;;;;;;;24.12;nan;62290.13;5038168;28;20179;-65
2023/08/30 06:31:20;;;;;;;2.17;1.30;;;;;;;24.38;nan;62282.69;5040405;28;20201;-67
2023/08/30 06:33:45;;;;;;;1.63;1.52;;;;;;;24.60;nan;62237.81;5031655;28;20186;-68
2023/08/30 06:36:14;;;;;;;0.93;0.90;;;;;;;24.84;nan;62258.81;5033577;28;20191;-66
2023/08/30 06:38:40;;;;;;;1.20;1.10;;;;;;;24.89;nan;62385.38;5031607;28;20609;-66
2023/08/30 06:41:05;;;;;;;1.10;1.10;;;;;;;25.40;nan;62309.66;5031285;28;20179;-65
2023/08/30 06:43:30;;;;;;;1.08;1.05;;;;;;;25.65;nan;62433.94;5036993;28;20220;-66
2023/08/30 06:45:59;;;;;;;1.35;1.25;;;;;;;25.88;nan;62363.91;5039510;28;20183;-64
2023/08/30 06:48:24;;;;;;;1.25;1.15;;;;;;;25.91;nan;62369.94;5034269;28;20548;-63
2023/08/30 06:50:49;;;;;;;1.42;1.33;;;;;;;26.19;nan;62424.94;5037619;28;20182;-67
2023/08/30 06:53:15;;;;;;;0.57;0.57;;;;;;;26.12;nan;62655.34;5034336;28;20633;-68
2023/08/30 06:55:40;;;;;;;1.08;1.08;;;;;;;26.20;nan;62428.69;5052786;28;20183;-64
2023/08/30 06:58:06;;;;;;;1.02;1.02;;;;;;;26.26;nan;62464.41;5033598;28;20183;-67
2023/08/30 07:00:31;;;;;;;0.90;0.90;;;;;;;26.40;nan;62513.34;5039178;28;20191;-65
2023/08/30 07:02:58;;;;;;;1.00;0.80;;;;;;;26.54;nan;62474.28;5037090;28;20223;-63
2023/08/30 07:05:23;;;;;;;1.35;1.25;;;;;;;26.58;nan;62465.75;5038358;28;20683;-66
2023/08/30 07:07:49;;;;;;;1.30;1.20;;;;;;;26.89;nan;62522.19;5039596;28;20230;-66
2023/08/30 07:10:14;;;;;;;1.80;1.38;;;;;;;26.97;nan;62539.22;5037577;28;20194;-68
2023/08/30 07:12:40;;;;;;;3.90;1.38;;;;;;;26.53;nan;62460.63;5039109;28;20646;-67
2023/08/30 07:15:06;;;;;;;17.40;2.05;;;;;;;26.74;nan;62654.50;5037369;28;20176;-66
2023/08/30 07:17:31;;;;;;;0.70;0.70;;;;;;;26.70;nan;62508.31;5035894;28;20690;-68
2023/08/30 07:19:56;;;;;;;0.52;0.52;;;;;;;27.00;nan;62537.41;5040041;28;20203;-64
2023/08/30 07:22:22;;;;;;;1.40;1.15;;;;;;;27.05;nan;62692.66;5034946;28;20203;-65
2023/08/30 07:24:47;;;;;;;1.30;1.20;;;;;;;26.99;nan;62551.44;5040148;28;20183;-65
2023/08/30 07:27:13;;;;;;;1.00;1.00;;;;;;;27.46;nan;62620.41;5036138;28;20187;-65
2023/08/30 07:29:40;;;;;;;0.63;0.63;;;;;;;27.22;nan;62544.19;5038963;28;20175;-68
2023/08/30 07:32:09;;;;;;;1.25;1.00;;;;;;;24.67;nan;64174.00;5041253;28;20240;-65
2023/08/30 07:34:34;;;;;;;1.25;1.17;;;;;;;27.51;nan;62613.00;5039218;28;20179;-68
2023/08/30 07:37:00;;;;;;;1.15;1.08;;;;;;;27.68;nan;62627.22;5038823;28;20602;-70
2023/08/30 07:39:25;;;;;;;1.38;1.27;;;;;;;27.83;nan;62659.59;5038975;28;20210;-67
2023/08/30 07:41:51;;;;;;;0.93;0.93;;;;;;;27.65;nan;62615.91;5038721;28;20211;-65
2023/08/30 07:44:16;;;;;;;0.70;0.70;;;;;;;27.89;nan;62798.38;5043450;28;20187;-67
2023/08/30 07:46:42;;;;;;;1.25;1.15;;;;;;;28.22;nan;62869.88;5044168;28;20182;-66
2023/08/30 07:49:07;;;;;;;1.92;1.30;;;;;;;28.50;nan;62851.50;5037692;28;20183;-69
2023/08/30 07:51:33;;;;;;;1.00;1.00;;;;;;;28.41;nan;62772.81;5042391;28;20182;-67
2023/08/30 07:53:58;;;;;;;1.30;1.05;;;;;;;28.42;nan;62761.38;5041143;28;20550;-66
2023/08/30 07:56:24;;;;;;;2.67;1.17;;;;;;;28.58;nan;62908.03;5041836;28;20650;-67
2023/08/30 07:58:49;;;;;;;1.00;1.00;;;;;;;28.79;nan;62842.16;5040312;28;20321;-65
2023/08/30 08:01:14;;;;;;;1.25;1.15;;;;;;;28.87;nan;62864.50;5040845;28;20214;-68
2023/08/30 08:03:43;;;;;;;1.13;1.02;;;;;;;28.71;nan;62819.81;5043269;28;20264;-65
2023/08/30 08:06:08;;;;;;;2.38;1.38;;;;;;;28.87;nan;62846.06;5036111;28;20270;-64
2023/08/30 08:08:34;;;;;;;1.02;1.02;;;;;;;29.06;nan;62786.28;5040076;28;20306;-69
2023/08/30 08:10:59;;;;;;;2.25;1.45;;;;;;;28.84;nan;62856.38;5040286;28;20680;-68
2023/08/30 08:13:25;;;;;;;1.35;1.25;;;;;;;29.00;nan;62903.09;5034945;28;20221;-69
2023/08/30 08:15:51;;;;;;;0.98;0.98;;;;;;;28.74;nan;62821.19;5040161;28;20170;-65
2023/08/30 08:18:16;;;;;;;1.20;1.10;;;;;;;28.91;nan;62942.75;5041878;28;20608;-66
2023/08/30 08:20:42;;;;;;;1.90;0.90;;;;;;;28.24;nan;62764.41;5035394;28;20694;-66
2023/08/30 08:23:08;;;;;;;0.80;0.80;;;;;;;28.20;nan;62769.75;5038277;28;20201;-70
2023/08/30 08:25:33;;;;;;;1.35;1.27;;;;;;;28.51;nan;62924.25;5037725;28;20192;-68
2023/08/30 08:27:59;;;;;;;1.13;1.13;;;;;;;28.82;nan;62785.06;5042311;28;20560;-66
2023/08/30 08:30:24;;;;;;;1.63;1.52;;;;;;;28.68;nan;62777.47;5034294;28;20649;-68
2023/08/30 08:32:50;;;;;;;1.58;1.48;;;;;;;29.02;nan;62918.56;5035315;28;20178;-69
2023/08/30 08:35:15;;;;;;;1.40;1.27;;;;;;;29.10;nan;62935.06;5043840;28;20174;-68
2023/08/30 08:37:41;;;;;;;0.88;0.88;;;;;;;29.21;nan;63116.25;5042756;28;20175;-67
2023/08/30 08:40:10;;;;;;;2.30;2.10;;;;;;;29.21;nan;62855.56;5039502;28;20178;-68
2023/08/30 08:42:36;;;;;;;1.70;1.58;;;;;;;29.21;nan;62906.16;5039711;28;20205;-67
2023/08/30 08:45:05;;;;;;;1.35;1.20;;;;;;;29.56;nan;62995.88;5042614;28;20552;-65
2023/08/30 08:47:31;;;;;;;0.85;0.85;;;;;;;29.38;nan;62888.84;5040525;28;20182;-69
2023/08/30 08:49:57;;;;;;;1.52;1.42;;;;;;;29.32;nan;62960.38;5039891;28;20190;-66
2023/08/30 08:52:26;;;;;;;0.77;0.77;;;;;;;29.18;nan;62828.97;5041780;28;20170;-70
2023/08/30 08:54:52;;;;;;;1.38;1.25;;;;;;;29.38;nan;62967.28;5042757;28;20178;-70
2023/08/30 08:57:19;;;;;;;1.08;1.02;;;;;;;28.68;nan;62929.47;5040341;28;20178;-67
2023/08/30 08:59:44;;;;;;;0.50;0.50;;;;;;;29.73;nan;63012.75;5040997;28;20202;-68
2023/08/30 09:02:13;;;;;;;1.10;1.10;;;;;;;29.61;nan;63059.56;5037789;28;20218;-70
2023/08/30 09:04:39;;;;;;;1.02;1.02;;;;;;;29.90;nan;63118.75;5040984;28;20231;-65
2023/08/30 09:07:05;;;;;;;1.40;1.30;;;;;;;29.60;nan;62976.16;5039640;28;20185;-64
2023/08/30 09:09:31;;;;;;;0.52;0.52;;;;;;;30.00;nan;63016.34;5036151;28;20175;-66
2023/08/30 09:11:56;;;;;;;1.38;1.27;;;;;;;25.94;nan;62414.72;5039162;28;20646;-66
2023/08/30 09:14:22;;;;;;;1.10;1.02;;;;;;;29.75;nan;62961.78;5037645;28;20715;-69
2023/08/30 09:16:57;;;;;;;1.05;1.05;;;;;;;30.09;nan;63063.59;5039493;28;20195;-66
2023/08/30 09:19:22;;;;;;;1.23;1.15;;;;;;;30.31;nan;63073.06;5037588;28;20562;-67
2023/08/30 09:21:58;;;;;;;0.95;0.95;;;;;;;30.16;nan;63129.66;5038772;28;20186;-63
2023/08/30 09:24:24;;;;;;;0.90;0.85;;;;;;;30.41;nan;63078.72;5040681;28;20185;-68
2023/08/30 09:26:51;;;;;;;0.98;0.98;;;;;;;30.12;nan;63141.47;5040280;28;20241;-68
2023/08/30 09:29:19;;;;;;;0.80;0.80;;;;;;;30.10;nan;63139.16;5037999;28;20193;-65
2023/08/30 09:31:45;;;;;;;1.33;1.27;;;;;;;30.14;nan;63004.00;5035233;28;20681;-66
2023/08/30 09:34:11;;;;;;;1.88;1.20;;;;;;;30.10;nan;63083.78;5038049;28;20221;-70
2023/08/30 09:36:40;;;;;;;1.08;0.98;;;;;;;30.27;nan;63063.19;5038029;28;20266;-65
2023/08/30 09:39:10;;;;;;;1.50;1.40;;;;;;;30.43;nan;63252.53;5034363;28;20178;-63
2023/08/30 09:41:42;;;;;;;0.93;0.80;;;;;;;30.71;nan;63144.94;5032538;28;20194;-65
2023/08/30 09:44:14;;;;;;;1.35;1.17;;;;;;;30.86;nan;63217.66;5034467;28;20179;-64
2023/08/30 09:46:47;;;;;;;6.22;1.20;;;;;;;30.72;nan;63190.97;5037736;28;20189;-67
2023/08/30 09:49:12;;;;;;;0.73;0.73;;;;;;;30.79;nan;63154.16;5033298;28;20182;-65
2023/08/30 09:51:43;;;;;;;1.08;1.08;;;;;;;30.40;nan;63212.72;5037833;28;20187;-65
2023/08/30 09:54:17;;;;;;;1.10;0.70;;;;;;;30.73;nan;63141.97;5033338;28;20186;-66
2023/08/30 09:56:43;;;;;;;0.95;0.93;;;;;;;30.88;nan;63137.53;5032657;28;20174;-67
2023/08/30 09:59:16;;;;;;;1.25;1.15;;;;;;;30.44;nan;63071.63;5033330;28;20321;-65
2023/08/30 10:01:43;;;;;;;1.38;1.27;;;;;;;30.78;nan;63136.59;5032299;28;20568;-65
2023/08/30 10:04:10;;;;;;;1.17;0.93;;;;;;;30.90;nan;63258.66;5034659;28;20182;-67
2023/08/30 10:06:37;;;;;;;0.60;0.60;;;;;;;30.97;nan;63155.81;5037428;28;20261;-66
2023/08/30 10:09:04;;;;;;;1.42;1.35;;;;;;;31.01;nan;63293.06;5034503;28;20280;-67
2023/08/30 10:11:34;;;;;;;0.98;0.98;;;;;;;31.22;nan;63231.59;5034332;28;20269;-67
2023/08/30 10:14:00;;;;;;;1.88;1.15;;;;;;;31.21;nan;63418.59;5034620;28;20183;-65
2023/08/30 10:16:30;;;;;;;0.88;0.88;;;;;;;31.47;nan;63263.06;5032277;28;20645;-66
2023/08/30 10:19:04;;;;;;;1.33;1.23;;;;;;;31.34;nan;63253.34;5032417;28;20634;-65
2023/08/30 10:21:30;;;;;;;0.80;0.73;;;;;;;31.36;nan;63224.53;5032197;28;20574;-67
2023/08/30 10:23:58;;;;;;;1.10;1.00;;;;;;;31.38;nan;63250.03;5032467;28;20210;-66
2023/08/30 10:26:26;;;;;;;1.20;1.02;;;;;;;31.57;nan;63258.75;5032246;28;20179;-66
2023/08/30 10:28:57;;;;;;;0.80;0.80;;;;;;;31.71;nan;63316.59;5037355;28;20674;-65
2023/08/30 10:31:22;;;;;;;1.30;0.90;;;;;;;31.80;nan;63338.16;5032641;28;20178;-66
2023/08/30 10:33:53;;;;;;;1.20;1.10;;;;;;;31.70;nan;63278.44;5032652;28;20662;-67
2023/08/30 10:36:26;;;;;;;1.73;1.50;;;;;;;31.72;nan;63212.00;5034059;28;20193;-67
2023/08/30 10:38:52;;;;;;;0.80;0.80;;;;;;;31.58;nan;63286.91;5032390;28;20186;-69
2023/08/30 10:41:25;;;;;;;1.02;1.00;;;;;;;31.78;nan;63295.59;5032278;28;20233;-65
2023/08/30 10:44:03;;;;;;;1.40;1.08;;;;;;;31.51;nan;63315.25;5031605;28;20252;-65
2023/08/30 10:46:33;;;;;;;1.02;1.02;;;;;;;31.05;nan;63064.69;5032074;28;20181;-65
2023/08/30 10:49:14;;;;;;;1.30;1.20;;;;;;;30.90;nan;63303.53;5031874;28;20190;-66
2023/08/30 10:51:40;;;;;;;1.10;1.00;;;;;;;31.16;nan;63167.16;5032777;28;20167;-66
2023/08/30 10:54:17;;;;;;;1.08;1.05;;;;;;;30.92;nan;63203.44;5035904;28;20183;-67
2023/08/30 10:57:15;;;;;;;1.38;1.23;;;;;;;30.91;nan;63212.84;5031538;28;20182;-69
2023/08/30 10:59:40;;;;;;;0.82;0.80;;;;;;;30.77;nan;63130.72;5030353;28;20576;-67
2023/08/30 11:02:06;;;;;;;1.15;0.85;;;;;;;30.83;nan;63144.97;5035827;28;20187;-67
2023/08/30 11:04:32;;;;;;;1.02;1.00;;;;;;;31.11;nan;63188.38;5031541;28;20191;-65
2023/08/30 11:06:58;;;;;;;1.52;1.40;;;;;;;31.38;nan;63237.41;5037161;28;20583;-67
2023/08/30 11:09:24;;;;;;;1.05;1.00;;;;;;;31.58;nan;63291.03;5034107;28;20179;-65
2023/08/30 11:11:51;;;;;;;1.00;0.82;;;;;;;32.15;nan;63340.34;5030658;28;20174;-66
2023/08/30 11:14:18;;;;;;;1.13;0.93;;;;;;;29.89;nan;63312.09;5036091;28;20197;-66
2023/08/30 11:16:44;;;;;;;0.90;0.90;;;;;;;32.73;nan;63521.19;5040613;28;20214;-68
2023/08/30 11:19:11;;;;;;;1.25;1.15;;;;;;;32.71;nan;63407.06;5043593;28;20301;-67
2023/08/30 11:21:43;;;;;;;0.82;0.82;;;;;;;32.16;nan;63357.97;5043153;28;20178;-68
2023/08/30 11:24:09;;;;;;;0.90;0.70;;;;;;;31.62;nan;63369.69;5037692;28;20181;-67
2023/08/30 11:26:35;;;;;;;0.90;0.85;;;;;;;31.31;nan;63175.91;5038593;28;20179;-67
2023/08/30 11:29:05;;;;;;;0.88;0.88;;;;;;;31.27;nan;63230.00;5042384;28;20174;-65
2023/08/30 11:31:30;;;;;;;1.00;0.95;;;;;;;31.37;nan;63154.34;5041721;28;20182;-63
2023/08/30 11:33:57;;;;;;;1.65;1.42;;;;;;;31.40;nan;63313.69;5037044;28;20187;-68
2023/08/30 11:36:27;;;;;;;1.50;1.30;;;;;;;31.45;nan;63234.88;5040741;28;20197;-67
2023/08/30 11:38:53;;;;;;;1.02;0.77;;;;;;;31.78;nan;63314.09;5040663;28;20167;-65
2023/08/30 11:41:20;;;;;;;1.55;1.45;;;;;;;31.36;nan;63351.34;5036807;28;20198;-66
2023/08/30 11:43:47;;;;;;;1.42;1.00;;;;;;;31.84;nan;63302.50;5041954;28;20688;-66
2023/08/30 11:46:13;;;;;;;1.13;1.13;;;;;;;31.84;nan;63337.47;5043072;28;20186;-66
2023/08/30 11:48:40;;;;;;;0.82;0.82;;;;;;;31.77;nan;63255.34;5041845;28;20683;-68